createdAt,value
2019-05-03T00:19:38.520Z,20.50
2019-05-03T00:39:52.526Z,24.13
2019-05-03T00:59:52.853Z,20.74
2019-05-03T01:20:02.573Z,20.90
2019-05-03T01:40:09.909Z,20.80
2019-05-03T02:00:22.451Z,19.09
2019-05-03T02:20:21.924Z,25.23
2019-05-03T02:40:29.609Z,18.28
2019-05-03T03:00:39.298Z,16.03
2019-05-03T03:20:48.721Z,13.74
2019-05-03T03:40:58.774Z,17.93
2019-05-03T04:01:06.157Z,13.03
2019-05-03T04:21:16.220Z,15.87
2019-05-03T04:41:26.622Z,16.65
2019-05-03T05:01:35.148Z,16.82
2019-05-03T05:21:41.544Z,14.56
2019-05-03T05:41:50.872Z,17.69
2019-05-03T06:02:00.229Z,17.17
2019-05-03T06:22:09.685Z,17.15
2019-05-03T06:42:19.441Z,15.83
2019-05-03T07:02:31.855Z,15.25
2019-05-03T07:22:31.287Z,16.76
2019-05-03T07:42:40.668Z,13.86
2019-05-03T08:02:50.111Z,13.08
2019-05-03T08:23:01.846Z,10.32
2019-05-03T08:43:01.214Z,7.77
2019-05-03T09:03:14.408Z,7.51
2019-05-03T09:23:14.852Z,7.54
2019-05-03T09:43:12.092Z,9.46
2019-05-03T10:03:21.693Z,4.38
2019-05-03T10:23:35.562Z,7.22
2019-05-03T10:43:30.768Z,6.81
2019-05-03T11:03:40.161Z,8.77
2019-05-03T11:23:49.492Z,11.57
2019-05-03T11:43:58.859Z,7.58
2019-05-03T12:04:08.364Z,10.03
2019-05-03T12:24:26.169Z,9.43
2019-05-03T12:44:24.559Z,6.93
2019-05-03T13:04:34.177Z,7.50
2019-05-03T13:24:35.753Z,7.15
2019-05-03T13:44:36.798Z,9.37
2019-05-03T14:04:52.302Z,7.42
2019-05-03T14:24:44.581Z,6.76
2019-05-03T14:44:55.616Z,6.95
2019-05-03T15:04:57.874Z,7.22
2019-05-03T15:24:59.696Z,6.26
2019-05-03T15:44:59.078Z,7.19
2019-05-03T16:05:11.695Z,4.64
2019-05-03T16:25:14.300Z,3.66
2019-05-03T16:45:12.332Z,2.85
2019-05-03T17:05:22.501Z,3.91
2019-05-03T17:25:22.099Z,3.43
2019-05-03T17:45:37.981Z,4.50
2019-05-03T18:05:35.380Z,3.06
2019-05-03T18:25:47.333Z,4.40
2019-05-03T18:45:46.836Z,3.12
2019-05-03T19:05:56.616Z,3.27
2019-05-03T19:26:08.798Z,4.48
2019-05-03T19:46:08.160Z,7.28
2019-05-03T20:06:17.698Z,7.56
2019-05-03T20:26:27.135Z,5.13
2019-05-03T20:46:36.594Z,5.04
2019-05-03T21:06:46.071Z,11.46
2019-05-03T21:26:55.535Z,10.83
2019-05-03T21:47:04.832Z,10.61
2019-05-03T22:07:16.507Z,10.15
2019-05-03T22:27:15.952Z,8.85
2019-05-03T22:47:27.648Z,8.39
2019-05-03T23:07:26.995Z,7.21
2019-05-03T23:27:36.373Z,6.61
2019-05-03T23:47:45.779Z,14.32
